Time;durP1;ratioP1;P1;durP2;ratioP2;P2;SDS_P1;SDS_P2;PMS_P1;PMS_P2;Temp;Humidity;BMP_temperature;BMP_pressure;BME280_temperature;BME280_humidity;BME280_pressure;Samples;Min_cycle;Max_cycle;Signal;HPM_P1;HPM_P2
2023/06/16 00:00:38;;;;;;;;;;;;;;;15.72;81.19;101601.03;5072400;28;20406;-67
2023/06/16 00:03:04;;;;;;;;;;;;;;;15.71;82.61;101603.91;5072702;28;19920;-66
2023/06/16 00:05:29;;;;;;;;;;;;;;;15.69;82.08;101596.00;5072156;28;19975;-65
2023/06/16 00:07:59;;;;;;;;;;;;;;;15.65;81.70;101600.06;5072406;28;19936;-63
2023/06/16 00:10:25;;;;;;;;;;;;;;;15.64;82.73;101606.44;5072207;28;20379;-64
2023/06/16 00:12:50;;;;;;;;;;;;;;;15.64;82.67;101602.94;5072608;28;19924;-64
2023/06/16 00:15:16;;;;;;;;;;;;;;;15.62;83.05;101597.72;5073402;28;19921;-65
2023/06/16 00:17:44;;;;;;;;;;;;;;;15.62;82.84;101600.41;5073206;28;20358;-66
2023/06/16 00:20:10;;;;;;;;;;;;;;;15.61;82.49;101596.06;5073205;28;20392;-65
2023/06/16 00:22:35;;;;;;;;;;;;;;;15.60;83.07;101590.84;5072418;28;19924;-66
2023/06/16 00:25:01;;;;;;;;;;;;;;;15.59;82.80;101587.31;5054117;28;20066;-68
2023/06/16 00:27:26;;;;;;;;;;;;;;;15.58;82.96;101584.78;5072245;28;19925;-66
2023/06/16 00:29:52;;;;;;;;;;;;;;;15.56;82.78;101587.63;5072155;28;19924;-64
2023/06/16 00:32:17;;;;;;;;;;;;;;;15.54;83.38;101581.59;5072149;28;20374;-67
2023/06/16 00:34:43;;;;;;;;;;;;;;;15.52;82.94;101586.31;5054167;28;19920;-65
2023/06/16 00:37:08;;;;;;;;;;;;;;;15.51;83.32;101587.34;5054156;28;19966;-67
2023/06/16 00:39:33;;;;;;;;;;;;;;;15.50;83.35;101586.50;5072477;28;20437;-65
2023/06/16 00:41:59;;;;;;;;;;;;;;;15.49;83.76;101586.66;5072226;28;19951;-64
2023/06/16 00:44:24;;;;;;;;;;;;;;;15.49;86.42;101578.63;5054301;28;19920;-65
2023/06/16 00:46:49;;;;;;;;;;;;;;;15.50;84.93;101588.34;5071885;28;19921;-67
2023/06/16 00:49:15;;;;;;;;;;;;;;;15.49;84.96;101578.63;5071948;28;20419;-64
2023/06/16 00:51:41;;;;;;;;;;;;;;;15.49;84.74;101584.81;5074827;28;20441;-65
2023/06/16 00:54:07;;;;;;;;;;;;;;;15.46;84.68;101571.75;5075918;28;19942;-65
2023/06/16 00:56:33;;;;;;;;;;;;;;;15.48;85.02;101572.41;5075879;28;19924;-64
2023/06/16 00:58:59;;;;;;;;;;;;;;;15.47;85.72;101569.91;5075612;28;20307;-64
2023/06/16 01:01:28;;;;;;;;;;;;;;;15.47;85.85;101570.75;5075717;28;19920;-65
2023/06/16 01:03:53;;;;;;;;;;;;;;;15.48;86.07;101568.91;5075566;28;20015;-64
2023/06/16 01:06:28;;;;;;;;;;;;;;;15.49;85.65;101573.25;5075445;28;20418;-65
2023/06/16 01:09:17;;;;;;;;;;;;;;;15.49;86.04;101568.72;5075755;28;19966;-65
2023/06/16 01:11:49;;;;;;;;;;;;;;;15.50;86.01;101566.88;5075849;28;20111;-64
2023/06/16 01:14:19;;;;;;;;;;;;;;;15.52;85.94;101561.31;5041255;28;20347;-66
2023/06/16 01:16:46;;;;;;;;;;;;;;;15.52;85.76;101554.09;5075520;28;20093;-66
2023/06/16 01:19:17;;;;;;;;;;;;;;;15.54;86.03;101557.44;5075731;28;19920;-63
2023/06/16 01:21:51;;;;;;;;;;;;;;;15.55;86.57;101551.06;5075342;28;20070;-64
2023/06/16 01:24:18;;;;;;;;;;;;;;;15.56;86.43;101552.72;5075154;28;19920;-63
2023/06/16 01:26:46;;;;;;;;;;;;;;;15.57;86.37;101551.72;5075452;28;19920;-65
2023/06/16 01:29:13;;;;;;;;;;;;;;;15.59;86.77;101552.41;5074878;28;19969;-64
2023/06/16 01:31:40;;;;;;;;;;;;;;;15.61;87.01;101550.41;5074846;28;19928;-65
2023/06/16 01:34:06;;;;;;;;;;;;;;;15.61;87.35;101550.41;5075512;28;19927;-63
2023/06/16 01:36:34;;;;;;;;;;;;;;;15.63;87.59;101553.75;5075522;28;19943;-65
2023/06/16 01:39:00;;;;;;;;;;;;;;;15.65;87.18;101557.09;5075758;28;20015;-67
2023/06/16 01:41:26;;;;;;;;;;;;;;;15.66;87.23;101548.03;5057290;28;20031;-65
2023/06/16 01:43:52;;;;;;;;;;;;;;;15.69;87.61;101557.59;5074675;28;19927;-64
2023/06/16 01:46:18;;;;;;;;;;;;;;;15.71;87.50;101553.72;5074592;28;20007;-66
2023/06/16 01:48:44;;;;;;;;;;;;;;;15.73;87.54;101551.69;5057014;28;19927;-65
2023/06/16 01:51:10;;;;;;;;;;;;;;;15.76;87.33;101554.00;5074734;28;19920;-67
2023/06/16 01:53:35;;;;;;;;;;;;;;;15.78;87.14;101551.97;5075054;28;20371;-65
2023/06/16 01:56:01;;;;;;;;;;;;;;;15.82;87.71;101557.00;5075002;28;19920;-66
2023/06/16 01:58:26;;;;;;;;;;;;;;;15.85;87.15;101551.25;5041884;28;19924;-64
2023/06/16 02:01:15;;;;;;;;;;;;;;;15.88;87.88;101550.91;5057411;28;19927;-65
2023/06/16 02:03:41;;;;;;;;;;;;;;;15.91;88.07;101546.03;5064406;28;19927;-65
2023/06/16 02:06:10;;;;;;;;;;;;;;;15.93;87.31;101548.53;5076241;28;19920;-65
2023/06/16 02:08:36;;;;;;;;;;;;;;;15.98;87.30;101541.63;5074719;28;20280;-67
2023/06/16 02:11:02;;;;;;;;;;;;;;;16.03;88.01;101546.44;5074227;28;19932;-66
2023/06/16 02:13:28;;;;;;;;;;;;;;;16.06;87.52;101544.22;5074779;28;20442;-65
2023/06/16 02:15:54;;;;;;;;;;;;;;;16.11;86.98;101543.69;5074554;28;20452;-67
2023/06/16 02:18:24;;;;;;;;;;;;;;;16.16;86.70;101549.34;5074145;28;19920;-65
2023/06/16 02:21:09;;;;;;;;;;;;;;;16.22;87.00;101553.19;5059137;28;19920;-66
2023/06/16 02:23:35;;;;;;;;;;;;;;;16.26;88.15;101547.28;5073851;28;20295;-64
2023/06/16 02:26:00;;;;;;;;;;;;;;;16.30;86.92;101545.91;5073856;28;19921;-67
2023/06/16 02:28:25;;;;;;;;;;;;;;;16.35;87.10;101542.66;5074063;28;20338;-65
2023/06/16 02:30:51;;;;;;;;;;;;;;;16.40;86.90;101542.94;5073867;28;20379;-65
2023/06/16 02:33:16;;;;;;;;;;;;;;;16.45;87.19;101537.84;5073632;28;19946;-66
2023/06/16 02:35:41;;;;;;;;;;;;;;;16.50;87.26;101540.03;5073866;28;20107;-64
2023/06/16 02:38:07;;;;;;;;;;;;;;;16.54;86.54;101542.16;5073681;28;19943;-66
2023/06/16 02:40:33;;;;;;;;;;;;;;;16.59;86.30;101533.53;5074072;28;19970;-66
2023/06/16 02:42:58;;;;;;;;;;;;;;;16.65;86.45;101544.38;5039296;28;19920;-65
2023/06/16 02:45:23;;;;;;;;;;;;;;;16.70;86.32;101539.31;5073300;28;19975;-66
2023/06/16 02:47:49;;;;;;;;;;;;;;;16.79;85.86;101540.09;5055589;28;19921;-66
2023/06/16 02:50:14;;;;;;;;;;;;;;;17.00;85.36;101542.88;5055756;28;20422;-65
2023/06/16 02:52:41;;;;;;;;;;;;;;;17.34;86.20;101538.75;5073251;28;19920;-64
2023/06/16 02:55:07;;;;;;;;;;;;;;;18.01;87.07;101538.50;5073403;28;20089;-65
2023/06/16 02:57:32;;;;;;;;;;;;;;;19.38;84.45;101539.72;5055546;28;20149;-63
2023/06/16 02:59:58;;;;;;;;;;;;;;;20.96;76.64;101540.94;5073289;28;19990;-65
2023/06/16 03:02:24;;;;;;;;;;;;;;;22.27;68.79;101541.38;5055588;28;20443;-65
2023/06/16 03:04:50;;;;;;;;;;;;;;;23.26;65.49;101545.00;5073256;28;20008;-64
2023/06/16 03:07:17;;;;;;;;;;;;;;;23.94;61.35;101547.47;5072982;28;20065;-65
2023/06/16 03:09:45;;;;;;;;;;;;;;;24.53;59.61;101540.25;5054969;28;20018;-64
2023/06/16 03:12:11;;;;;;;;;;;;;;;24.95;56.86;101539.06;5073249;28;20339;-65
2023/06/16 03:14:36;;;;;;;;;;;;;;;25.37;56.07;101543.50;5054265;28;19975;-65
2023/06/16 03:17:02;;;;;;;;;;;;;;;25.80;53.95;101529.38;5073494;28;19967;-64
2023/06/16 03:19:28;;;;;;;;;;;;;;;26.11;52.55;101530.75;5072738;28;19921;-64
2023/06/16 03:21:53;;;;;;;;;;;;;;;26.23;52.23;101539.69;5076003;28;20012;-64
2023/06/16 03:24:19;;;;;;;;;;;;;;;26.38;49.83;101530.94;5075354;28;19959;-66
2023/06/16 03:26:45;;;;;;;;;;;;;;;26.40;49.35;101537.00;5073328;28;19921;-65
2023/06/16 03:29:12;;;;;;;;;;;;;;;26.45;49.25;101531.59;5072815;28;19946;-64
2023/06/16 03:31:37;;;;;;;;;;;;;;;26.62;49.08;101537.88;5072583;28;19935;-65
2023/06/16 03:34:03;;;;;;;;;;;;;;;26.91;49.55;101541.31;5072637;28;19928;-65
2023/06/16 03:36:28;;;;;;;;;;;;;;;27.07;46.52;101539.63;5072553;28;19927;-65
2023/06/16 03:38:53;;;;;;;;;;;;;;;26.55;47.73;101539.94;5073817;28;20386;-63
2023/06/16 03:41:19;;;;;;;;;;;;;;;25.61;49.01;101532.28;5072815;28;19927;-66
2023/06/16 03:43:44;;;;;;;;;;;;;;;25.76;50.28;101541.88;5072871;28;20390;-64
2023/06/16 03:46:09;;;;;;;;;;;;;;;26.48;46.87;101537.38;5072457;28;20318;-66
2023/06/16 03:48:35;;;;;;;;;;;;;;;27.14;46.74;101543.00;5072367;28;19967;-64
2023/06/16 03:51:00;;;;;;;;;;;;;;;27.70;44.97;101539.03;5054391;28;19920;-65
2023/06/16 03:53:27;;;;;;;;;;;;;;;27.98;43.81;101540.69;5072435;28;20022;-62
2023/06/16 03:55:52;;;;;;;;;;;;;;;28.20;43.49;101528.81;5072653;28;19952;-65
2023/06/16 03:58:18;;;;;;;;;;;;;;;28.51;43.13;101533.47;5072578;28;20352;-65
2023/06/16 04:00:43;;;;;;;;;;;;;;;28.71;42.47;101532.78;5072954;28;20011;-65
2023/06/16 04:03:09;;;;;;;;;;;;;;;28.81;40.27;101526.53;5072374;28;19959;-64
2023/06/16 04:05:35;;;;;;;;;;;;;;;28.79;41.11;101534.19;5072156;28;19921;-63
2023/06/16 04:08:00;;;;;;;;;;;;;;;28.75;41.73;101533.91;5073268;28;19927;-64
2023/06/16 04:10:26;;;;;;;;;;;;;;;28.77;39.41;101530.91;5072398;28;19924;-64
2023/06/16 04:12:52;;;;;;;;;;;;;;;28.69;41.78;101530.31;5072288;28;19924;-64
2023/06/16 04:15:18;;;;;;;;;;;;;;;28.92;39.84;101528.28;5072365;28;19924;-65
2023/06/16 04:17:43;;;;;;;;;;;;;;;29.18;40.19;101526.47;5072090;28;19920;-63
2023/06/16 04:20:11;;;;;;;;;;;;;;;29.48;39.36;101534.00;5071969;28;19920;-64
2023/06/16 04:22:37;;;;;;;;;;;;;;;29.49;37.08;101532.91;5072060;28;20007;-65
2023/06/16 04:25:02;;;;;;;;;;;;;;;29.14;36.53;101537.16;5072234;28;19960;-63
2023/06/16 04:27:28;;;;;;;;;;;;;;;29.06;36.38;101534.09;5076311;28;19920;-65
2023/06/16 04:29:54;;;;;;;;;;;;;;;29.08;35.04;101527.25;5076305;28;19928;-67
2023/06/16 04:32:20;;;;;;;;;;;;;;;29.14;36.50;101541.81;5075939;28;20387;-65
2023/06/16 04:34:45;;;;;;;;;;;;;;;29.22;35.30;101531.16;5075794;28;19920;-65
2023/06/16 04:37:11;;;;;;;;;;;;;;;29.07;35.35;101538.50;5076220;28;19928;-65
2023/06/16 04:39:37;;;;;;;;;;;;;;;28.96;36.11;101535.72;5075935;28;20011;-63
2023/06/16 04:42:04;;;;;;;;;;;;;;;28.97;35.64;101537.34;5075792;28;20009;-65
2023/06/16 04:44:29;;;;;;;;;;;;;;;29.18;34.41;101540.16;5076366;28;19926;-64
2023/06/16 04:46:56;;;;;;;;;;;;;;;29.16;34.70;101534.97;5075622;28;19920;-67
2023/06/16 04:49:21;;;;;;;;;;;;;;;29.11;35.45;101532.19;5075408;28;19920;-64
2023/06/16 04:51:47;;;;;;;;;;;;;;;29.23;35.75;101529.25;5075643;28;19927;-65
2023/06/16 04:54:12;;;;;;;;;;;;;;;29.39;35.35;101528.19;5076318;28;19928;-66
2023/06/16 04:56:37;;;;;;;;;;;;;;;29.65;35.32;101525.53;5075471;28;20332;-64
2023/06/16 04:59:03;;;;;;;;;;;;;;;29.69;34.71;101521.97;5075442;28;19920;-64
2023/06/16 05:01:28;;;;;;;;;;;;;;;29.59;34.83;101527.47;5057644;28;19931;-65
2023/06/16 05:03:55;;;;;;;;;;;;;;;29.52;34.92;101533.22;5075148;28;20022;-69
2023/06/16 05:06:20;;;;;;;;;;;;;;;29.43;35.06;101532.03;5075270;28;19921;-67
2023/06/16 05:08:45;;;;;;;;;;;;;;;29.44;35.10;101520.00;5075508;28;19920;-65
2023/06/16 05:11:11;;;;;;;;;;;;;;;29.48;34.73;101531.25;5075209;28;19924;-66
2023/06/16 05:13:36;;;;;;;;;;;;;;;29.00;35.04;101530.50;5057593;28;19931;-65
2023/06/16 05:16:01;;;;;;;;;;;;;;;28.42;35.80;101529.59;5075706;28;19920;-66
2023/06/16 05:18:27;;;;;;;;;;;;;;;27.86;37.27;101531.00;5074795;28;19920;-65
2023/06/16 05:20:52;;;;;;;;;;;;;;;27.65;37.65;101528.03;5075004;28;19946;-66
2023/06/16 05:23:17;;;;;;;;;;;;;;;27.49;38.30;101519.91;5075199;28;19921;-62
2023/06/16 05:25:42;;;;;;;;;;;;;;;27.14;37.93;101518.38;5075735;28;19921;-65
2023/06/16 05:28:08;;;;;;;;;;;;;;;26.17;40.13;101519.66;5075305;28;19921;-65
2023/06/16 05:30:33;;;;;;;;;;;;;;;25.19;41.52;101523.53;5075064;28;20280;-64
2023/06/16 05:32:58;;;;;;;;;;;;;;;24.56;43.37;101521.56;5074823;28;20026;-67
2023/06/16 05:35:24;;;;;;;;;;;;;;;24.18;44.33;101521.16;5074576;28;19952;-66
2023/06/16 05:37:49;;;;;;;;;;;;;;;23.96;45.25;101524.41;5073993;28;20019;-65
2023/06/16 05:40:14;;;;;;;;;;;;;;;23.81;45.84;101515.03;5074859;28;20365;-65
2023/06/16 05:42:40;;;;;;;;;;;;;;;23.69;46.43;101523.13;5074678;28;20014;-65
2023/06/16 05:45:06;;;;;;;;;;;;;;;23.49;46.90;101523.41;5074461;28;19921;-63
2023/06/16 05:47:31;;;;;;;;;;;;;;;23.39;47.11;101517.66;5074616;28;19952;-67
2023/06/16 05:49:58;;;;;;;;;;;;;;;23.38;47.81;101521.44;5074253;28;20069;-65
2023/06/16 05:52:24;;;;;;;;;;;;;;;23.33;47.53;101521.28;5074434;28;19925;-65
2023/06/16 05:54:49;;;;;;;;;;;;;;;23.27;48.07;101522.22;5074308;28;20024;-66
2023/06/16 05:57:15;;;;;;;;;;;;;;;23.26;48.63;101524.09;5074592;28;19927;-66
2023/06/16 05:59:40;;;;;;;;;;;;;;;23.34;48.66;101520.22;5074790;28;20348;-64
2023/06/16 06:02:05;;;;;;;;;;;;;;;23.41;48.77;101520.97;5074951;28;19921;-63
2023/06/16 06:04:32;;;;;;;;;;;;;;;23.49;48.70;101529.66;5073905;28;19944;-65
2023/06/16 06:06:57;;;;;;;;;;;;;;;23.56;48.50;101535.03;5074131;28;20003;-66
2023/06/16 06:09:23;;;;;;;;;;;;;;;23.63;48.37;101535.75;5055907;28;20093;-65
2023/06/16 06:11:49;;;;;;;;;;;;;;;23.69;48.03;101529.41;5074794;28;19964;-64
2023/06/16 06:14:14;;;;;;;;;;;;;;;23.73;48.39;101533.34;5074707;28;20394;-65
2023/06/16 06:16:40;;;;;;;;;;;;;;;23.79;48.05;101529.69;5075264;28;19935;-65
2023/06/16 06:19:06;;;;;;;;;;;;;;;23.81;47.08;101539.50;5057860;28;19927;-65
2023/06/16 06:21:32;;;;;;;;;;;;;;;23.81;46.83;101525.91;5074554;28;19926;-68
2023/06/16 06:23:57;;;;;;;;;;;;;;;23.81;46.72;101525.91;5073738;28;19921;-66
2023/06/16 06:26:23;;;;;;;;;;;;;;;23.80;47.03;101519.66;5073852;28;19920;-64
2023/06/16 06:28:49;;;;;;;;;;;;;;;23.84;47.09;101525.44;5073859;28;20326;-68
2023/06/16 06:31:14;;;;;;;;;;;;;;;23.86;47.02;101524.16;5073898;28;19920;-65
2023/06/16 06:33:39;;;;;;;;;;;;;;;23.84;46.91;101522.72;5073548;28;19931;-63
2023/06/16 06:36:05;;;;;;;;;;;;;;;23.75;46.44;101525.78;5073555;28;19920;-67
2023/06/16 06:38:30;;;;;;;;;;;;;;;23.76;46.74;101515.72;5073839;28;20537;-64
2023/06/16 06:40:56;;;;;;;;;;;;;;;23.84;45.95;101528.16;5073251;28;19974;-64
2023/06/16 06:43:21;;;;;;;;;;;;;;;23.84;46.04;101523.56;5073339;28;19927;-65
2023/06/16 06:45:48;;;;;;;;;;;;;;;23.82;45.72;101519.41;5073822;28;20046;-63
2023/06/16 06:48:13;;;;;;;;;;;;;;;23.83;46.02;101523.78;5073003;28;19932;-65
2023/06/16 06:50:39;;;;;;;;;;;;;;;23.84;45.25;101520.00;5073604;28;19942;-66
2023/06/16 06:53:04;;;;;;;;;;;;;;;23.85;45.26;101521.66;5055399;28;19927;-65
2023/06/16 06:55:29;;;;;;;;;;;;;;;23.87;44.66;101520.38;5073428;28;19926;-64
2023/06/16 06:57:55;;;;;;;;;;;;;;;23.89;45.50;101522.84;5073347;28;19927;-65
2023/06/16 07:00:20;;;;;;;;;;;;;;;23.90;46.16;101525.34;5073297;28;19925;-66
2023/06/16 07:02:45;;;;;;;;;;;;;;;23.91;46.75;101526.16;5073713;28;19924;-65
2023/06/16 07:05:11;;;;;;;;;;;;;;;23.96;46.82;101523.56;5073067;28;19920;-64
2023/06/16 07:07:36;;;;;;;;;;;;;;;23.97;46.28;101526.06;5073230;28;20014;-64
2023/06/16 07:10:05;;;;;;;;;;;;;;;24.04;46.55;101531.44;5072697;28;19931;-65
2023/06/16 07:12:30;;;;;;;;;;;;;;;24.08;47.21;101530.72;5072950;28;19931;-65
2023/06/16 07:14:56;;;;;;;;;;;;;;;24.13;48.46;101521.03;5072769;28;19920;-64
2023/06/16 07:17:21;;;;;;;;;;;;;;;24.12;47.46;101528.34;5072851;28;19920;-67
2023/06/16 07:19:46;;;;;;;;;;;;;;;24.11;50.03;101521.25;5073238;28;20438;-65
2023/06/16 07:22:12;;;;;;;;;;;;;;;24.00;52.30;101525.63;5074400;28;20093;-66
2023/06/16 07:24:39;;;;;;;;;;;;;;;23.97;54.04;101520.63;5056424;28;19926;-67
2023/06/16 07:27:05;;;;;;;;;;;;;;;23.97;54.71;101530.69;5074819;28;19920;-64
2023/06/16 07:29:31;;;;;;;;;;;;;;;23.82;54.84;101522.97;5075318;28;19920;-65
2023/06/16 07:31:56;;;;;;;;;;;;;;;23.80;56.42;101516.91;5074438;28;19921;-66
2023/06/16 07:34:21;;;;;;;;;;;;;;;23.79;57.95;101529.69;5055121;28;20444;-66
2023/06/16 07:36:47;;;;;;;;;;;;;;;23.82;57.60;101522.13;5072697;28;19932;-65
2023/06/16 07:39:15;;;;;;;;;;;;;;;23.86;57.45;101523.31;5072810;28;19947;-68
2023/06/16 07:41:41;;;;;;;;;;;;;;;23.84;56.80;101520.00;5072329;28;19920;-66
2023/06/16 07:44:06;;;;;;;;;;;;;;;23.85;57.84;101522.50;5073031;28;19928;-65
2023/06/16 07:46:32;;;;;;;;;;;;;;;23.82;57.02;101525.69;5074227;28;19944;-65
2023/06/16 07:48:58;;;;;;;;;;;;;;;23.85;57.23;101527.94;5076067;28;19920;-66
2023/06/16 07:51:23;;;;;;;;;;;;;;;23.87;57.74;101522.25;5057726;28;19920;-64
2023/06/16 07:53:49;;;;;;;;;;;;;;;23.90;56.13;101516.34;5076114;28;19966;-64
2023/06/16 07:56:14;;;;;;;;;;;;;;;23.90;57.43;101521.78;5057412;28;19920;-67
2023/06/16 07:58:40;;;;;;;;;;;;;;;23.93;56.72;101513.16;5058127;28;19921;-65
2023/06/16 08:01:05;;;;;;;;;;;;;;;23.96;57.44;101512.69;5075941;28;19927;-67
2023/06/16 08:03:30;;;;;;;;;;;;;;;23.96;57.28;101512.69;5075956;28;20019;-67
2023/06/16 08:05:57;;;;;;;;;;;;;;;23.93;58.54;101516.72;5076201;28;19979;-65
2023/06/16 08:08:23;;;;;;;;;;;;;;;23.93;58.92;101514.00;5073714;28;19920;-64
2023/06/16 08:10:51;;;;;;;;;;;;;;;23.98;58.60;101516.84;5073444;28;20310;-64
2023/06/16 08:13:16;;;;;;;;;;;;;;;24.04;57.77;101520.53;5054986;28;19939;-64
2023/06/16 08:15:41;;;;;;;;;;;;;;;24.08;56.82;101513.56;5072670;28;19921;-67
2023/06/16 08:18:06;;;;;;;;;;;;;;;24.09;56.88;101512.50;5073650;28;19975;-65
2023/06/16 08:20:32;;;;;;;;;;;;;;;24.10;56.22;101514.16;5074582;28;19921;-65
2023/06/16 08:22:58;;;;;;;;;;;;;;;24.07;56.31;101515.47;5073425;28;19927;-67
2023/06/16 08:25:23;;;;;;;;;;;;;;;24.07;56.10;101510.00;5072341;28;20376;-66
2023/06/16 08:27:48;;;;;;;;;;;;;;;24.06;55.42;101507.53;5071827;28;19955;-67
2023/06/16 08:30:17;;;;;;;;;;;;;;;24.09;55.06;101516.06;5071627;28;19921;-65
2023/06/16 08:32:42;;;;;;;;;;;;;;;24.14;55.16;101503.63;5071845;28;20268;-66
2023/06/16 08:35:08;;;;;;;;;;;;;;;24.13;54.64;101508.25;5054203;28;19931;-66
2023/06/16 08:37:33;;;;;;;;;;;;;;;24.09;53.42;101512.50;5072050;28;19925;-65
2023/06/16 08:39:59;;;;;;;;;;;;;;;24.07;53.81;101514.63;5071844;28;20062;-65
2023/06/16 08:42:30;;;;;;;;;;;;;;;24.08;53.09;101511.66;5070988;28;20312;-65
2023/06/16 08:44:57;;;;;;;;;;;;;;;24.16;54.17;101513.22;5071596;28;20466;-65
2023/06/16 08:47:25;;;;;;;;;;;;;;;24.31;52.64;101508.19;5071799;28;20350;-66
2023/06/16 08:49:52;;;;;;;;;;;;;;;24.36;53.75;101510.19;5071843;28;19921;-65
2023/06/16 08:52:20;;;;;;;;;;;;;;;24.30;53.54;101511.97;5054681;28;19928;-65
2023/06/16 08:54:48;;;;;;;;;;;;;;;24.35;54.37;101505.81;5072986;28;20345;-67
2023/06/16 08:57:14;;;;;;;;;;;;;;;24.46;53.21;101512.31;5075169;28;20317;-63
2023/06/16 08:59:44;;;;;;;;;;;;;;;24.53;52.79;101507.59;5073774;28;20030;-64
2023/06/16 09:02:10;;;;;;;;;;;;;;;24.59;51.96;101507.50;5072033;28;19920;-67
2023/06/16 09:04:35;;;;;;;;;;;;;;;24.66;52.22;101510.09;5071660;28;20451;-63
2023/06/16 09:07:00;;;;;;;;;;;;;;;24.73;51.80;101508.06;5071738;28;20407;-68
2023/06/16 09:09:27;;;;;;;;;;;;;;;24.81;51.83;101504.97;5071939;28;19970;-64
2023/06/16 09:12:10;;;;;;;;;;;;;;;24.92;49.93;101504.13;5071505;28;19935;-65
2023/06/16 09:14:41;;;;;;;;;;;;;;;24.96;47.84;101501.75;5075351;28;19960;-65
2023/06/16 09:17:07;;;;;;;;;;;;;;;24.99;48.49;101507.59;5075434;28;19975;-63
2023/06/16 09:19:35;;;;;;;;;;;;;;;24.98;46.53;101500.47;5075266;28;20035;-66
2023/06/16 09:22:02;;;;;;;;;;;;;;;25.13;47.44;101504.56;5075073;28;19928;-65
2023/06/16 09:24:28;;;;;;;;;;;;;;;25.25;48.33;101503.47;5057125;28;19943;-66
2023/06/16 09:26:57;;;;;;;;;;;;;;;25.29;47.31;101501.94;5075288;28;19924;-66
2023/06/16 09:29:26;;;;;;;;;;;;;;;25.36;47.53;101507.22;5075101;28;19973;-66
2023/06/16 09:31:52;;;;;;;;;;;;;;;25.44;46.78;101497.81;5075031;28;19920;-67
2023/06/16 09:34:18;;;;;;;;;;;;;;;25.51;46.47;101501.25;5074966;28;19920;-65
2023/06/16 09:36:43;;;;;;;;;;;;;;;25.42;46.35;101500.81;5074915;28;20501;-64
2023/06/16 09:39:25;;;;;;;;;;;;;;;25.47;46.61;101495.47;5075066;28;19935;-67
2023/06/16 09:41:51;;;;;;;;;;;;;;;25.64;46.41;101493.59;5074349;28;20298;-65
2023/06/16 09:44:16;;;;;;;;;;;;;;;25.79;45.07;101495.00;5056758;28;19927;-64
2023/06/16 09:46:43;;;;;;;;;;;;;;;25.88;44.10;101486.16;5074836;28;20315;-66
2023/06/16 09:49:18;;;;;;;;;;;;;;;26.01;44.58;101487.72;5074596;28;19924;-67
2023/06/16 09:51:48;;;;;;;;;;;;;;;26.15;43.08;101483.59;5075133;28;19926;-64
2023/06/16 09:54:14;;;;;;;;;;;;;;;26.24;42.97;101481.25;5074645;28;19924;-65
2023/06/16 09:56:40;;;;;;;;;;;;;;;26.35;42.75;101487.75;5074483;28;19966;-64
2023/06/16 09:59:06;;;;;;;;;;;;;;;26.36;42.13;101481.22;5056611;28;19920;-66
2023/06/16 10:01:31;;;;;;;;;;;;;;;26.34;41.64;101481.47;5074527;28;19920;-66
2023/06/16 10:03:56;;;;;;;;;;;;;;;26.42;40.56;101478.31;5074274;28;19924;-64
2023/06/16 10:06:25;;;;;;;;;;;;;;;26.51;41.38;101485.00;5074880;28;19982;-64
2023/06/16 10:08:54;;;;;;;;;;;;;;;26.41;40.12;101481.28;5074238;28;19920;-64
2023/06/16 10:11:20;;;;;;;;;;;;;;;26.42;40.45;101472.03;5074362;28;19925;-65
2023/06/16 10:13:50;;;;;;;;;;;;;;;26.52;40.79;101480.34;5074203;28;19927;-67
2023/06/16 10:16:17;;;;;;;;;;;;;;;26.61;39.82;101476.13;5074132;28;19928;-66
2023/06/16 10:18:42;;;;;;;;;;;;;;;26.72;39.45;101474.34;5073880;28;19978;-67
2023/06/16 10:21:10;;;;;;;;;;;;;;;26.76;39.49;101478.22;5074438;28;20295;-64
2023/06/16 10:23:36;;;;;;;;;;;;;;;26.80;37.72;101476.66;5073955;28;20383;-63
2023/06/16 10:26:02;;;;;;;;;;;;;;;26.84;39.00;101473.16;5076111;28;19920;-66
2023/06/16 10:28:29;;;;;;;;;;;;;;;26.95;38.46;101476.84;5074434;28;19920;-64
2023/06/16 10:30:55;;;;;;;;;;;;;;;27.11;37.84;101466.94;5073642;28;19963;-65
2023/06/16 10:33:25;;;;;;;;;;;;;;;27.33;38.12;101473.22;5073538;28;20037;-65
2023/06/16 10:35:51;;;;;;;;;;;;;;;27.37;38.30;101465.31;5074113;28;20018;-66
2023/06/16 10:38:16;;;;;;;;;;;;;;;27.34;38.76;101477.63;5055836;28;19924;-64
2023/06/16 10:40:42;;;;;;;;;;;;;;;27.34;38.79;101474.06;5055744;28;20331;-65
2023/06/16 10:43:10;;;;;;;;;;;;;;;27.22;37.89;101471.47;5073447;28;19966;-65
2023/06/16 10:45:39;;;;;;;;;;;;;;;27.16;38.72;101467.81;5073330;28;20433;-67
2023/06/16 10:48:10;;;;;;;;;;;;;;;26.88;38.33;101461.69;5073444;28;19927;-65
2023/06/16 10:50:38;;;;;;;;;;;;;;;26.79;38.77;101451.22;5073460;28;20298;-65
2023/06/16 10:53:14;;;;;;;;;;;;;;;26.63;38.37;101457.59;5073433;28;19947;-68
2023/06/16 10:55:41;;;;;;;;;;;;;;;26.49;37.49;101456.28;5073091;28;20395;-66
2023/06/16 10:58:16;;;;;;;;;;;;;;;26.34;37.30;101450.59;5072984;28;19943;-64
2023/06/16 11:00:41;;;;;;;;;;;;;;;26.33;36.01;101448.91;5073296;28;19971;-64
2023/06/16 11:03:07;;;;;;;;;;;;;;;26.32;35.59;101444.53;5073098;28;20413;-65
2023/06/16 11:05:36;;;;;;;;;;;;;;;26.34;35.64;101447.88;5073139;28;20027;-64
2023/06/16 11:08:02;;;;;;;;;;;;;;;26.41;36.42;101448.53;5072920;28;19921;-66
2023/06/16 11:10:28;;;;;;;;;;;;;;;26.23;36.77;101442.22;5073104;28;19924;-66
2023/06/16 11:12:54;;;;;;;;;;;;;;;26.24;37.29;101437.56;5072645;28;20384;-65
2023/06/16 11:15:19;;;;;;;;;;;;;;;26.37;37.81;101429.09;5072736;28;19924;-69
2023/06/16 11:17:45;;;;;;;;;;;;;;;26.44;36.19;101439.81;5072783;28;19921;-66
2023/06/16 11:20:13;;;;;;;;;;;;;;;26.42;36.76;101436.50;5073131;28;19924;-68
2023/06/16 11:22:38;;;;;;;;;;;;;;;26.49;36.83;101435.25;5073549;28;19921;-64
2023/06/16 11:25:04;;;;;;;;;;;;;;;26.48;36.16;101439.06;5073898;28;19920;-66
2023/06/16 11:27:30;;;;;;;;;;;;;;;26.57;35.02;101431.25;5072990;28;19955;-66
2023/06/16 11:29:57;;;;;;;;;;;;;;;26.64;34.11;101437.38;5073171;28;19964;-63
2023/06/16 11:32:27;;;;;;;;;;;;;;;26.71;34.98;101435.28;5072692;28;19935;-64
2023/06/16 11:34:55;;;;;;;;;;;;;;;26.87;34.59;101425.34;5072019;28;19927;-66
2023/06/16 11:37:21;;;;;;;;;;;;;;;27.06;34.96;101434.09;5072620;28;19924;-67
2023/06/16 11:39:46;;;;;;;;;;;;;;;27.08;33.86;101437.38;5072457;28;19994;-65
2023/06/16 11:42:15;;;;;;;;;;;;;;;27.21;34.09;101425.25;5072524;28;19924;-63
2023/06/16 11:44:43;;;;;;;;;;;;;;;27.33;34.28;101436.84;5072815;28;20070;-63
2023/06/16 11:47:09;;;;;;;;;;;;;;;27.49;34.47;101424.16;5072411;28;20415;-66
2023/06/16 11:49:37;;;;;;;;;;;;;;;27.41;32.87;101420.78;5054508;28;19968;-67
2023/06/16 11:52:03;;;;;;;;;;;;;;;27.27;33.42;101424.22;5072779;28;20413;-64
2023/06/16 11:54:29;;;;;;;;;;;;;;;27.21;33.48;101430.72;5072358;28;19971;-66
2023/06/16 11:57:00;;;;;;;;;;;;;;;27.18;33.39;101432.06;5072235;28;19960;-64
2023/06/16 11:59:30;;;;;;;;;;;;;;;27.12;33.15;101427.59;5072319;28;19920;-66
2023/06/16 12:01:57;;;;;;;;;;;;;;;27.07;33.81;101433.00;5072178;28;19920;-64
2023/06/16 12:04:23;;;;;;;;;;;;;;;26.98;33.25;101426.31;5072018;28;20307;-66
2023/06/16 12:06:48;;;;;;;;;;;;;;;27.00;33.48;101429.66;5072536;28;20398;-63
2023/06/16 12:09:17;;;;;;;;;;;;;;;27.01;32.03;101431.28;5072298;28;19928;-64
2023/06/16 12:11:46;;;;;;;;;;;;;;;27.05;32.26;101432.44;5072356;28;19924;-64
2023/06/16 12:14:16;;;;;;;;;;;;;;;27.06;32.32;101432.19;5072259;28;19956;-67
2023/06/16 12:16:41;;;;;;;;;;;;;;;27.01;32.45;101431.28;5072699;28;19920;-64
2023/06/16 12:19:06;;;;;;;;;;;;;;;27.03;33.35;101429.13;5073078;28;20292;-63
2023/06/16 12:21:32;;;;;;;;;;;;;;;27.04;33.65;101431.59;5072783;28;19939;-64
2023/06/16 12:23:58;;;;;;;;;;;;;;;27.01;33.04;101431.28;5072257;28;19921;-65
2023/06/16 12:26:52;;;;;;;;;;;;;;;27.04;33.26;101434.34;5072241;28;20363;-64
2023/06/16 12:29:18;;;;;;;;;;;;;;;27.13;32.91;101435.53;5054474;28;19920;-63
2023/06/16 12:31:54;;;;;;;;;;;;;;;27.20;32.33;101426.31;5072024;28;19925;-64